createdAt,value
2022-08-22T00:02:09.105Z,16.50
2022-08-22T00:02:53.437Z,20.20
2022-08-22T00:03:08.535Z,17.20
2022-08-22T00:03:09.413Z,17.20
2022-08-22T00:03:11.649Z,16.80
2022-08-22T00:04:50.768Z,16.50
2022-08-22T00:07:31.016Z,16.50
2022-08-22T00:10:10.088Z,16.50
2022-08-22T00:12:50.590Z,16.40
2022-08-22T00:15:42.181Z,16.40
2022-08-22T00:18:18.741Z,16.30
2022-08-22T00:21:00.466Z,16.30
2022-08-22T00:23:38.293Z,16.20
2022-08-22T00:26:24.574Z,16.20
2022-08-22T00:29:00.738Z,16.20
2022-08-22T00:31:37.408Z,16.30
2022-08-22T00:34:14.696Z,16.30
2022-08-22T00:36:52.019Z,16.20
2022-08-22T00:39:28.112Z,16.20
2022-08-22T00:42:29.544Z,16.20
2022-08-22T00:45:45.795Z,16.20
2022-08-22T00:48:52.289Z,16.10
2022-08-22T00:52:16.243Z,16.00
2022-08-22T00:55:10.549Z,16.00
2022-08-22T00:58:00.424Z,15.90
2022-08-22T01:00:35.059Z,15.90
2022-08-22T01:03:35.499Z,15.80
2022-08-22T01:06:24.318Z,15.80
2022-08-22T01:09:06.465Z,15.70
2022-08-22T01:12:02.861Z,15.70
2022-08-22T01:14:42.948Z,15.50
2022-08-22T01:17:55.110Z,15.50
2022-08-22T01:21:30.643Z,15.30
2022-08-22T01:25:13.162Z,15.20
2022-08-22T01:28:48.850Z,15.20
2022-08-22T01:32:08.535Z,15.10
2022-08-22T01:35:37.556Z,15.10
2022-08-22T01:38:44.880Z,14.90
2022-08-22T01:42:01.187Z,14.80
2022-08-22T01:45:01.697Z,14.90
2022-08-22T01:47:40.833Z,15.00
2022-08-22T01:50:26.238Z,15.00
2022-08-22T01:53:03.720Z,15.10
2022-08-22T01:55:37.990Z,15.00
2022-08-22T01:58:19.049Z,15.10
2022-08-22T02:01:14.598Z,15.00
2022-08-22T02:04:00.422Z,15.10
2022-08-22T02:06:39.611Z,15.10
2022-08-22T02:09:21.352Z,15.20
2022-08-22T02:11:55.768Z,15.10
2022-08-22T02:14:44.235Z,15.10
2022-08-22T02:17:23.653Z,15.20
2022-08-22T02:20:04.407Z,15.20
2022-08-22T02:22:44.593Z,15.10
2022-08-22T02:25:22.415Z,15.00
2022-08-22T02:27:59.335Z,15.00
2022-08-22T02:30:47.744Z,15.20
2022-08-22T02:33:30.950Z,15.20
2022-08-22T02:36:14.251Z,15.10
2022-08-22T02:38:55.590Z,15.10
2022-08-22T02:41:36.081Z,15.00
2022-08-22T02:44:16.755Z,15.00
2022-08-22T02:46:59.758Z,14.90
2022-08-22T02:49:43.947Z,14.80
2022-08-22T02:52:19.630Z,14.80
2022-08-22T02:54:57.529Z,14.80
2022-08-22T02:57:39.654Z,14.80
2022-08-22T03:00:32.365Z,14.90
2022-08-22T03:03:07.486Z,14.70
2022-08-22T03:06:00.520Z,14.70
2022-08-22T03:08:33.038Z,14.70
2022-08-22T03:11:22.293Z,14.60
2022-08-22T03:14:07.399Z,14.50
2022-08-22T03:16:41.541Z,14.50
2022-08-22T03:19:38.577Z,14.60
2022-08-22T03:22:12.374Z,14.50
2022-08-22T03:24:55.532Z,14.50
2022-08-22T03:27:33.032Z,14.50
2022-08-22T03:30:11.194Z,14.40
2022-08-22T03:32:59.207Z,14.40
2022-08-22T03:35:38.844Z,14.40
2022-08-22T03:38:21.085Z,14.30
2022-08-22T03:41:24.623Z,14.20
2022-08-22T03:44:34.476Z,14.20
2022-08-22T03:47:38.132Z,14.30
2022-08-22T03:50:54.745Z,14.20
2022-08-22T03:54:09.537Z,14.20
2022-08-22T03:57:21.948Z,14.20
2022-08-22T04:00:12.443Z,14.20
2022-08-22T04:03:46.459Z,14.20
2022-08-22T04:06:56.716Z,14.10
2022-08-22T04:09:55.775Z,14.10
2022-08-22T04:12:51.675Z,14.10
2022-08-22T04:16:19.051Z,14.10
2022-08-22T04:19:17.390Z,14.10
2022-08-22T04:22:18.900Z,14.10
2022-08-22T04:25:03.613Z,14.00
2022-08-22T04:27:41.969Z,14.00
2022-08-22T04:30:24.509Z,14.00
2022-08-22T04:33:06.529Z,14.00
2022-08-22T04:35:42.516Z,14.00
2022-08-22T04:38:17.870Z,14.10
2022-08-22T04:40:55.177Z,14.00
2022-08-22T04:43:33.425Z,14.00
2022-08-22T04:46:11.240Z,14.00
2022-08-22T04:48:48.831Z,13.90
2022-08-22T04:51:24.762Z,13.90
2022-08-22T04:54:27.028Z,13.90
2022-08-22T04:57:20.095Z,13.80
2022-08-22T04:59:49.999Z,13.80
2022-08-22T05:02:27.572Z,13.80
2022-08-22T05:05:04.831Z,13.70
2022-08-22T05:07:50.328Z,13.80
2022-08-22T05:10:24.137Z,13.80
2022-08-22T05:13:08.845Z,13.80
2022-08-22T05:15:39.983Z,13.80
2022-08-22T05:18:18.085Z,13.90
2022-08-22T05:20:50.639Z,13.90
2022-08-22T05:23:30.071Z,13.90
2022-08-22T05:26:03.356Z,14.00
2022-08-22T05:28:38.440Z,14.10
2022-08-22T05:31:11.213Z,14.10
2022-08-22T05:33:45.587Z,14.10
2022-08-22T05:36:21.113Z,14.10
2022-08-22T05:38:57.056Z,14.10
2022-08-22T05:41:33.639Z,14.30
2022-08-22T05:44:03.072Z,14.20
2022-08-22T05:46:43.857Z,14.20
2022-08-22T05:49:21.544Z,14.20
2022-08-22T05:52:08.462Z,14.20
2022-08-22T05:54:52.259Z,14.20
2022-08-22T05:57:29.626Z,14.20
2022-08-22T06:00:05.991Z,14.20
2022-08-22T06:02:54.865Z,14.10
2022-08-22T06:05:27.727Z,14.20
2022-08-22T06:08:03.628Z,14.20
2022-08-22T06:10:42.255Z,14.20
2022-08-22T06:13:21.992Z,14.20
2022-08-22T06:16:07.303Z,14.20
2022-08-22T06:18:41.965Z,14.20
2022-08-22T06:21:18.733Z,14.10
2022-08-22T06:23:53.146Z,14.20
2022-08-22T06:26:25.224Z,14.30
2022-08-22T06:28:59.259Z,14.40
2022-08-22T06:31:35.182Z,14.50
2022-08-22T06:34:11.892Z,14.70
2022-08-22T06:36:43.827Z,14.80
2022-08-22T06:39:20.736Z,14.90
2022-08-22T06:41:57.052Z,15.00
2022-08-22T06:44:32.712Z,15.00
2022-08-22T06:47:12.182Z,15.10
2022-08-22T06:49:43.576Z,15.10
2022-08-22T06:52:19.244Z,15.10
2022-08-22T06:54:50.506Z,15.10
2022-08-22T06:57:33.313Z,15.20
2022-08-22T07:00:08.275Z,15.30
2022-08-22T07:02:42.258Z,15.30
2022-08-22T07:05:19.260Z,15.40
2022-08-22T07:07:47.827Z,15.50
2022-08-22T07:10:17.721Z,15.60
2022-08-22T07:12:51.593Z,15.60
2022-08-22T07:15:30.919Z,15.80
2022-08-22T07:18:02.903Z,15.90
2022-08-22T07:20:35.791Z,16.10
2022-08-22T07:23:08.780Z,16.10
2022-08-22T07:25:51.534Z,16.20
2022-08-22T07:28:36.946Z,16.30
2022-08-22T07:31:33.397Z,16.40
2022-08-22T07:34:21.909Z,16.60
2022-08-22T07:37:00.073Z,16.60
2022-08-22T07:39:36.395Z,16.70
2022-08-22T07:42:15.413Z,16.80
2022-08-22T07:45:08.259Z,17.00
2022-08-22T07:47:57.149Z,17.20
2022-08-22T07:50:31.037Z,17.20
2022-08-22T07:53:09.076Z,17.30
2022-08-22T07:55:49.279Z,17.50
2022-08-22T07:58:19.513Z,17.80
2022-08-22T08:00:51.992Z,18.00
2022-08-22T08:03:24.330Z,18.30
2022-08-22T08:05:53.709Z,18.50
2022-08-22T08:08:27.136Z,18.70
2022-08-22T08:10:58.278Z,19.00
2022-08-22T08:13:32.508Z,19.20
2022-08-22T08:16:05.468Z,19.40
2022-08-22T08:18:37.239Z,19.60
2022-08-22T08:21:10.628Z,19.70
2022-08-22T08:23:45.893Z,19.90
2022-08-22T08:26:18.837Z,20.10
2022-08-22T08:28:50.870Z,20.30
2022-08-22T08:31:27.437Z,20.50
2022-08-22T08:34:05.144Z,20.60
2022-08-22T08:36:47.454Z,20.90
2022-08-22T08:39:24.773Z,21.10
2022-08-22T08:42:57.433Z,21.30
2022-08-22T08:45:45.515Z,21.50
2022-08-22T08:48:51.836Z,21.80
2022-08-22T08:51:57.297Z,22.00
2022-08-22T08:54:55.579Z,22.20
2022-08-22T08:57:55.236Z,22.50
2022-08-22T09:00:46.064Z,22.70
2022-08-22T09:03:44.752Z,22.80
2022-08-22T09:06:56.789Z,22.90
2022-08-22T09:09:56.846Z,23.00
2022-08-22T09:13:00.249Z,23.00
2022-08-22T09:16:08.165Z,22.90
2022-08-22T09:19:11.683Z,23.00
2022-08-22T09:22:22.271Z,23.10
2022-08-22T09:25:23.893Z,23.30
2022-08-22T09:28:02.898Z,23.50
2022-08-22T09:30:58.331Z,23.40
2022-08-22T09:33:38.445Z,23.40
2022-08-22T09:36:19.874Z,23.40
2022-08-22T09:38:58.172Z,23.30
2022-08-22T09:41:45.362Z,23.30
2022-08-22T09:44:39.713Z,23.40
2022-08-22T09:47:24.660Z,23.40
2022-08-22T09:50:08.399Z,23.30
2022-08-22T09:53:02.957Z,23.30
2022-08-22T09:55:48.771Z,23.30
2022-08-22T09:58:27.768Z,23.40
2022-08-22T10:01:00.660Z,23.40
2022-08-22T10:04:08.437Z,23.50
2022-08-22T10:06:51.002Z,23.60
2022-08-22T10:09:31.338Z,23.80
2022-08-22T10:12:12.283Z,23.80
2022-08-22T10:15:02.056Z,23.80
2022-08-22T10:17:36.492Z,23.90
2022-08-22T10:20:23.125Z,23.90
2022-08-22T10:23:08.155Z,23.90
2022-08-22T10:25:45.174Z,23.90
2022-08-22T10:28:28.682Z,23.90
2022-08-22T10:31:23.380Z,24.10
2022-08-22T10:34:07.960Z,24.30
2022-08-22T10:36:49.411Z,24.50
2022-08-22T10:39:25.243Z,24.60
2022-08-22T10:42:19.419Z,24.80
2022-08-22T10:45:23.766Z,24.80
2022-08-22T10:48:47.160Z,24.90
2022-08-22T10:51:25.722Z,24.70
2022-08-22T10:54:30.875Z,24.60
2022-08-22T10:57:16.354Z,24.50
2022-08-22T11:00:04.779Z,24.70
2022-08-22T11:03:00.831Z,24.70
2022-08-22T11:05:37.954Z,24.70
2022-08-22T11:09:02.347Z,24.70
2022-08-22T11:11:46.386Z,25.00
2022-08-22T11:14:58.231Z,25.10
2022-08-22T11:18:14.562Z,25.10
2022-08-22T11:20:57.735Z,25.20
2022-08-22T11:23:45.560Z,25.30
2022-08-22T11:26:47.116Z,25.20
2022-08-22T11:29:43.430Z,25.40
2022-08-22T11:32:20.132Z,25.70
2022-08-22T11:34:58.469Z,26.00
2022-08-22T11:37:56.364Z,25.90
2022-08-22T11:40:37.143Z,26.00
2022-08-22T11:43:33.112Z,26.10
2022-08-22T11:46:20.052Z,26.00
2022-08-22T11:49:06.287Z,26.00
2022-08-22T11:51:59.699Z,25.80
2022-08-22T11:54:42.277Z,25.80
2022-08-22T11:57:17.475Z,25.90
2022-08-22T12:00:10.033Z,26.10
2022-08-22T12:02:58.892Z,26.30
2022-08-22T12:05:34.921Z,26.40
2022-08-22T12:08:12.020Z,26.60
2022-08-22T12:10:50.586Z,26.80
2022-08-22T12:13:42.453Z,27.00
2022-08-22T12:16:22.649Z,27.10
2022-08-22T12:19:06.491Z,27.30
2022-08-22T12:22:41.119Z,27.20
2022-08-22T12:25:39.356Z,27.10
2022-08-22T12:28:30.051Z,27.20
2022-08-22T12:31:12.954Z,27.20
2022-08-22T12:34:02.362Z,27.30
2022-08-22T12:37:06.473Z,27.40
2022-08-22T12:40:26.343Z,27.40
2022-08-22T12:43:16.384Z,27.50
2022-08-22T12:46:16.765Z,27.40
2022-08-22T12:49:15.723Z,27.30
2022-08-22T12:52:04.365Z,27.20
2022-08-22T12:55:13.871Z,27.10
2022-08-22T12:57:56.249Z,27.00
2022-08-22T13:00:34.596Z,27.10
2022-08-22T13:03:09.560Z,27.10
2022-08-22T13:05:44.777Z,27.10
2022-08-22T13:08:30.197Z,27.20
2022-08-22T13:11:02.445Z,27.10
2022-08-22T13:13:38.848Z,27.00
2022-08-22T13:16:12.274Z,26.90
2022-08-22T13:18:53.882Z,26.70
2022-08-22T13:21:32.075Z,26.60
2022-08-22T13:24:10.790Z,26.50
2022-08-22T13:26:51.989Z,26.40
2022-08-22T13:29:27.262Z,26.40
2022-08-22T13:32:01.607Z,26.30
2022-08-22T13:34:40.593Z,26.30
2022-08-22T13:37:24.357Z,26.10
2022-08-22T13:40:01.339Z,26.10
2022-08-22T13:42:40.120Z,26.00
2022-08-22T13:45:18.851Z,25.90
2022-08-22T13:47:55.054Z,25.90
2022-08-22T13:50:27.631Z,25.80
2022-08-22T13:53:08.018Z,25.70
2022-08-22T13:55:49.148Z,25.70
2022-08-22T13:58:38.583Z,25.70
2022-08-22T14:01:28.611Z,25.70
2022-08-22T14:04:02.759Z,25.50
2022-08-22T14:06:43.812Z,25.40
2022-08-22T14:09:31.782Z,25.30
2022-08-22T14:12:13.606Z,25.20
2022-08-22T14:14:46.191Z,25.10
2022-08-22T14:17:22.286Z,25.10
2022-08-22T14:20:01.780Z,25.10
2022-08-22T14:22:35.692Z,25.10
2022-08-22T14:25:10.101Z,25.00
2022-08-22T14:27:45.856Z,25.10
2022-08-22T14:30:20.282Z,25.10
2022-08-22T14:32:54.313Z,25.00
2022-08-22T14:35:37.629Z,24.90
2022-08-22T14:38:30.258Z,24.90
2022-08-22T14:41:05.793Z,24.80
2022-08-22T14:43:53.731Z,24.80
2022-08-22T14:46:27.698Z,24.70
2022-08-22T14:49:26.769Z,24.70
2022-08-22T14:52:10.493Z,24.60
2022-08-22T14:54:48.097Z,24.70
2022-08-22T14:57:21.663Z,24.70
2022-08-22T14:59:53.847Z,24.60
2022-08-22T15:02:29.848Z,24.60
2022-08-22T15:05:11.995Z,24.50
2022-08-22T15:07:40.699Z,24.60
2022-08-22T15:10:22.358Z,24.60
2022-08-22T15:12:56.427Z,24.50
2022-08-22T15:15:49.850Z,24.50
2022-08-22T15:18:36.713Z,24.40
2022-08-22T15:21:11.321Z,24.30
2022-08-22T15:23:46.716Z,24.30
2022-08-22T15:26:26.138Z,24.10
2022-08-22T15:29:08.860Z,24.10
2022-08-22T15:31:41.595Z,24.10
2022-08-22T15:34:34.131Z,24.00
2022-08-22T15:37:32.489Z,23.90
2022-08-22T15:40:13.044Z,23.90
2022-08-22T15:42:45.975Z,23.90
2022-08-22T15:45:34.065Z,23.80
2022-08-22T15:48:08.718Z,23.80
2022-08-22T15:50:42.703Z,23.80
2022-08-22T15:53:21.000Z,23.80
2022-08-22T15:56:24.173Z,23.70
2022-08-22T15:59:17.644Z,23.70
2022-08-22T16:01:55.464Z,23.70
2022-08-22T16:04:40.639Z,23.70
2022-08-22T16:07:36.198Z,23.70
2022-08-22T16:10:14.366Z,23.70
2022-08-22T16:12:47.598Z,23.60
2022-08-22T16:15:57.171Z,23.50
2022-08-22T16:19:20.878Z,23.50
2022-08-22T16:22:12.577Z,23.50
2022-08-22T16:25:10.440Z,23.40
2022-08-22T16:27:55.146Z,23.40
2022-08-22T16:30:37.254Z,23.30
2022-08-22T16:33:17.644Z,23.30
2022-08-22T16:36:41.814Z,23.30
2022-08-22T16:39:33.419Z,23.20
2022-08-22T16:42:29.493Z,23.20
2022-08-22T16:45:13.656Z,23.20
2022-08-22T16:47:52.817Z,23.20
2022-08-22T16:50:34.265Z,23.20
2022-08-22T16:53:50.515Z,23.20
2022-08-22T16:56:31.976Z,23.10
2022-08-22T16:59:38.316Z,23.00
2022-08-22T17:02:47.346Z,23.10
2022-08-22T17:05:32.358Z,23.10
2022-08-22T17:08:26.115Z,23.00
2022-08-22T17:11:08.572Z,23.00
2022-08-22T17:14:10.141Z,23.00
2022-08-22T17:17:10.179Z,22.90
2022-08-22T17:20:11.978Z,22.90
2022-08-22T17:22:57.908Z,22.90
2022-08-22T17:25:36.880Z,22.80
2022-08-22T17:28:22.318Z,22.80
2022-08-22T17:31:05.381Z,22.80
2022-08-22T17:34:02.604Z,22.70
2022-08-22T17:36:50.611Z,22.70
2022-08-22T17:39:39.033Z,22.70
2022-08-22T17:42:47.993Z,22.60
2022-08-22T17:45:38.711Z,22.60
2022-08-22T17:48:19.064Z,22.60
2022-08-22T17:50:54.734Z,22.50
2022-08-22T17:53:37.330Z,22.50
2022-08-22T17:56:19.865Z,22.50
2022-08-22T17:59:00.417Z,22.40
2022-08-22T18:01:47.123Z,22.30
2022-08-22T18:04:29.238Z,22.30
2022-08-22T18:07:23.448Z,22.20
2022-08-22T18:09:59.211Z,22.20
2022-08-22T18:12:34.780Z,22.20
2022-08-22T18:15:12.154Z,22.20
2022-08-22T18:17:48.825Z,22.20
2022-08-22T18:20:26.905Z,22.20
2022-08-22T18:23:01.392Z,22.20
2022-08-22T18:25:45.007Z,22.10
2022-08-22T18:28:26.894Z,22.10
2022-08-22T18:31:02.963Z,22.10
2022-08-22T18:33:37.313Z,22.00
2022-08-22T18:36:19.266Z,21.90
2022-08-22T18:38:58.363Z,21.70
2022-08-22T18:41:35.059Z,21.60
2022-08-22T18:44:12.346Z,21.70
2022-08-22T18:46:47.330Z,21.70
2022-08-22T18:49:54.210Z,21.70
2022-08-22T18:52:47.554Z,21.70
2022-08-22T18:55:52.394Z,21.60
2022-08-22T18:58:52.515Z,21.60
2022-08-22T19:01:50.847Z,21.50
2022-08-22T19:04:45.699Z,21.40
2022-08-22T19:07:41.816Z,21.20
2022-08-22T19:10:38.320Z,21.10
2022-08-22T19:13:48.046Z,21.10
2022-08-22T19:17:02.710Z,21.20
2022-08-22T19:20:07.956Z,21.30
2022-08-22T19:22:38.000Z,21.20
2022-08-22T19:25:17.586Z,21.20
2022-08-22T19:28:25.132Z,21.10
2022-08-22T19:31:22.704Z,21.10
2022-08-22T19:34:16.318Z,21.10
2022-08-22T19:36:46.491Z,21.00
2022-08-22T19:39:58.431Z,21.00
2022-08-22T19:42:35.180Z,21.00
2022-08-22T19:45:21.159Z,20.90
2022-08-22T19:48:01.376Z,20.90
2022-08-22T19:50:37.941Z,20.90
2022-08-22T19:53:35.611Z,20.90
2022-08-22T19:56:23.846Z,20.80
2022-08-22T19:59:09.915Z,20.60
2022-08-22T20:01:53.717Z,20.40
2022-08-22T20:04:52.738Z,20.60
2022-08-22T20:07:44.661Z,20.60
2022-08-22T20:10:29.524Z,20.60
2022-08-22T20:13:07.749Z,20.50
2022-08-22T20:16:18.017Z,20.50
2022-08-22T20:19:16.905Z,20.40
2022-08-22T20:21:53.940Z,20.30
2022-08-22T20:24:32.369Z,20.20
2022-08-22T20:27:15.362Z,20.10
2022-08-22T20:29:52.151Z,19.90
2022-08-22T20:32:24.634Z,19.90
2022-08-22T20:34:59.189Z,19.80
2022-08-22T20:38:03.266Z,19.70
2022-08-22T20:40:56.411Z,19.70
2022-08-22T20:43:35.837Z,19.70
2022-08-22T20:46:24.202Z,19.80
2022-08-22T20:48:57.095Z,19.90
2022-08-22T20:51:29.290Z,19.80
2022-08-22T20:54:00.906Z,19.80
2022-08-22T20:56:51.665Z,19.80
2022-08-22T20:59:37.004Z,19.80
2022-08-22T21:02:12.738Z,19.70
2022-08-22T21:04:52.841Z,19.60
2022-08-22T21:07:30.111Z,19.60
2022-08-22T21:10:22.807Z,19.40
2022-08-22T21:13:10.763Z,19.30
2022-08-22T21:15:43.139Z,19.30
2022-08-22T21:18:23.908Z,19.20
2022-08-22T21:20:53.475Z,19.10
2022-08-22T21:23:22.052Z,19.10
2022-08-22T21:25:59.937Z,18.80
2022-08-22T21:28:34.162Z,18.70
2022-08-22T21:31:12.640Z,18.70
2022-08-22T21:33:47.557Z,18.50
2022-08-22T21:36:20.042Z,18.60
2022-08-22T21:38:52.661Z,18.60
2022-08-22T21:41:31.439Z,18.60
2022-08-22T21:44:28.743Z,18.30
2022-08-22T21:46:58.816Z,18.30
2022-08-22T21:49:30.417Z,18.10
2022-08-22T21:51:59.677Z,18.10
2022-08-22T21:54:41.323Z,18.10
2022-08-22T21:57:33.338Z,18.10
2022-08-22T22:00:01.331Z,18.00
2022-08-22T22:02:36.510Z,17.80
2022-08-22T22:05:10.349Z,17.80
2022-08-22T22:07:44.603Z,17.80
2022-08-22T22:10:16.677Z,17.70
2022-08-22T22:12:47.764Z,17.50
2022-08-22T22:15:21.478Z,17.40
2022-08-22T22:17:49.692Z,17.40
2022-08-22T22:20:21.287Z,17.40
2022-08-22T22:22:51.479Z,17.20
2022-08-22T22:25:39.193Z,17.30
2022-08-22T22:28:13.639Z,17.20
2022-08-22T22:30:42.983Z,17.20
2022-08-22T22:33:11.751Z,17.20
2022-08-22T22:35:41.616Z,17.20
2022-08-22T22:38:11.372Z,17.20
2022-08-22T22:40:39.425Z,17.30
2022-08-22T22:43:07.377Z,17.30
2022-08-22T22:45:35.541Z,17.30
2022-08-22T22:48:06.529Z,17.20
2022-08-22T22:50:40.420Z,17.10
2022-08-22T22:53:11.249Z,17.30
2022-08-22T22:55:41.530Z,17.40
2022-08-22T22:58:13.501Z,17.40
2022-08-22T23:00:43.669Z,17.50
2022-08-22T23:03:11.720Z,17.60
2022-08-22T23:05:39.631Z,17.60
2022-08-22T23:08:07.644Z,17.60
2022-08-22T23:10:36.928Z,17.70
2022-08-22T23:13:06.637Z,17.70
2022-08-22T23:15:34.638Z,17.70
2022-08-22T23:18:02.633Z,17.60
2022-08-22T23:20:30.604Z,17.60
2022-08-22T23:22:59.495Z,17.60
2022-08-22T23:25:27.551Z,17.70
2022-08-22T23:27:57.380Z,17.60
2022-08-22T23:30:25.345Z,17.60
2022-08-22T23:32:53.685Z,17.50
2022-08-22T23:35:21.616Z,17.40
2022-08-22T23:37:49.571Z,17.40
2022-08-22T23:40:17.906Z,17.30
2022-08-22T23:42:45.896Z,17.20
2022-08-22T23:45:15.165Z,17.10
2022-08-22T23:47:43.079Z,16.90
2022-08-22T23:50:11.150Z,16.90
2022-08-22T23:52:39.142Z,16.60
2022-08-22T23:55:08.236Z,16.60
2022-08-22T23:57:36.406Z,16.60
